EGBBEGHQ

Guest
Details From EGBB - Birmingham
To EGHQ - Newquay
Flight Number -
Tags generated
Created
Modified
Stats Distance 171 nm / 318 km
Max Altitude 14,700 ft / 4,481 m
Waypoints 3
Social Downloads 0
Likes 0
Share VATSIM

Download

Looking for another format? Having issues loading an existing format? Contact us
Advertisement - Login to hide

Notes

Basic altitude profile: - Ascent Rate: 2500ft/min - Ascent Speed: 250kts - Cruise Altitude: 35000ft - Cruise Speed: 420kts - Descent Rate: 1500ft/min - Descent Speed: 250kts Options: - Use NATs: no - Use PACOTS: yes - Use low airways: no - Use high airways: yes

Route

EGBB KESUP EGHQ

ID Type Via Altitude Latitude Longitude Leg Dist Tot Dist Heading (true) Name
O EGBB APT - 0 ft / 0 m 52.45597˚ -1.75038˚ - 0 nm - Birmingham
KESUP FIX - 14,700 ft / 4,481 m 51.32556˚ -3.65472˚ 97 nm 97 nm 227° / 225° -
O EGHQ APT - 0 ft / 0 m 50.44076˚ -4.99533˚ 73 nm 171 nm 224° / 223° Newquay

Altitude Profile

Advertisement - Login to hide

Weather


0- 5 10 15 20 25 30 35+ Temperature / ° C

Clouds and Precipitation
Forecast for 2017-12-18 18:00 UTC. Updated 2 hours ago

Ground ~20,000 ft ~40,000 ft Winds

EGBB

Details ICAO EGBB (BHX)
Name Birmingham
Region United Kingdom
Timezone Europe/London (UTC+0.0)
Stats Elevation 327 ft / 100 m (AMSL)
Location 52.455966° -1.750378°
Runways 1
Magnetic Variation 1.138° W

METAR

EGBB 181850Z 17004KT 0450 R33/0450 FG VV/// 01/01 Q1032

Decode

TAF

TAF EGBB 181705Z 1818/1918 32004KT 5000 BR FEW010 BECMG 1818/1821 0200 FG VV/// PROB30 TEMPO 1821/1912 1500 BR SCT002 BECMG 1912/1915 9999 NSW SCT020 TEMPO 1915/1918 BKN010

Decode

Departure Runways

ID Width Length Bearing (true) Bearing (mag) Surface Threshold Offset Overrun Length
15 151 ft / 46 m 8,477 ft / 2,584 m 145.87° 147.01° Asphalt 925 ft / 282 m 0 ft / 0 m
33 151 ft / 46 m 8,477 ft / 2,584 m 325.89° 327.03° Asphalt 958 ft / 292 m 0 ft / 0 m

EGHQ

Details ICAO EGHQ
Name Newquay
Region United Kingdom
Timezone Europe/London (UTC+0.0)
Stats Elevation 389 ft / 119 m (AMSL)
Location 50.440759° -4.995334°
Runways 1
Magnetic Variation 2.044° W

METAR

EGHQ 181850Z 13007KT CAVOK 05/03 Q1033

Decode

TAF

Not found

Destination Runways

ID Width Length Bearing (true) Bearing (mag) Surface Threshold Offset Overrun Length
12 148 ft / 45 m 9,006 ft / 2,745 m 120.58° 122.62° Asphalt 0 ft / 0 m 0 ft / 0 m
30 148 ft / 45 m 9,006 ft / 2,745 m 300.60° 302.64° Asphalt 1,014 ft / 309 m 0 ft / 0 m

Approach Navaids

Runway Type Ident Frequency Range Bearing (true) Bearing (mag) Slope Elevation
30 Localiser ISM 108.70 MHz 18 nm / 33 km 300.58° 302.62° - 390 ft / 119 m (AMSL)
30 Glidescope ISM 108.70 MHz 10 nm / 19 km 300.58° 302.62° 3.00° 390 ft / 119 m (AMSL)

Popular Alternatives